Terminal Aerodrome Forecast
Issued by NWS Louisville, KY

Home | Current Version | Previous Version | Text Only | Print | Product List | Glossary On
Versions: 1 2 3 4 5 6 7 8 9 10 11 12 13 14 15 16 17 18 19 20 21 22 23
000
FTUS43 KLMK 242300 AAB
TAFLEX
TAF AMD
KLEX 242300Z 2423/2518 23009KT P6SM FEW030
     FM250000 22006KT P6SM FEW020 SCT250
     FM251200 18006KT P6SM SCT010 BKN070=

USA.gov is the U.S. government's official web portal to all federal, state and local government web resources and services.